sensor_id;sensor_type;location;lat;lon;timestamp;P1;durP1;ratioP1;P2;durP2;ratioP2
11287;SDS011;5700;50.996;7.044;2022-10-22T00:01:25;3.85;;;1.80;;
11287;SDS011;5700;50.996;7.044;2022-10-22T00:04:27;6.00;;;2.47;;
11287;SDS011;5700;50.996;7.044;2022-10-22T00:07:28;4.47;;;1.40;;
11287;SDS011;5700;50.996;7.044;2022-10-22T00:10:29;5.32;;;1.80;;
11287;SDS011;5700;50.996;7.044;2022-10-22T00:13:32;4.65;;;2.05;;
11287;SDS011;5700;50.996;7.044;2022-10-22T00:16:33;4.25;;;1.65;;
11287;SDS011;5700;50.996;7.044;2022-10-22T00:19:35;4.28;;;2.00;;
11287;SDS011;5700;50.996;7.044;2022-10-22T00:22:36;4.90;;;1.80;;
11287;SDS011;5700;50.996;7.044;2022-10-22T00:25:38;8.02;;;1.85;;
11287;SDS011;5700;50.996;7.044;2022-10-22T00:28:40;2.83;;;1.63;;
11287;SDS011;5700;50.996;7.044;2022-10-22T00:31:42;6.90;;;1.77;;
11287;SDS011;5700;50.996;7.044;2022-10-22T00:34:48;3.65;;;1.98;;
11287;SDS011;5700;50.996;7.044;2022-10-22T00:37:49;5.43;;;1.95;;
11287;SDS011;5700;50.996;7.044;2022-10-22T00:40:51;2.97;;;1.65;;
11287;SDS011;5700;50.996;7.044;2022-10-22T00:43:55;6.35;;;2.10;;
11287;SDS011;5700;50.996;7.044;2022-10-22T00:46:57;4.20;;;1.83;;
11287;SDS011;5700;50.996;7.044;2022-10-22T00:49:59;4.10;;;1.88;;
11287;SDS011;5700;50.996;7.044;2022-10-22T00:53:02;5.18;;;2.13;;
11287;SDS011;5700;50.996;7.044;2022-10-22T00:56:04;3.22;;;2.00;;
11287;SDS011;5700;50.996;7.044;2022-10-22T00:59:07;5.50;;;2.08;;
11287;SDS011;5700;50.996;7.044;2022-10-22T01:02:09;3.28;;;1.90;;
11287;SDS011;5700;50.996;7.044;2022-10-22T01:05:11;5.18;;;2.15;;
11287;SDS011;5700;50.996;7.044;2022-10-22T01:08:15;3.88;;;1.63;;
11287;SDS011;5700;50.996;7.044;2022-10-22T01:11:21;7.35;;;1.92;;
11287;SDS011;5700;50.996;7.044;2022-10-22T01:14:30;2.85;;;1.75;;
11287;SDS011;5700;50.996;7.044;2022-10-22T01:17:36;4.47;;;1.92;;
11287;SDS011;5700;50.996;7.044;2022-10-22T01:24:05;4.70;;;2.08;;
11287;SDS011;5700;50.996;7.044;2022-10-22T01:27:19;4.97;;;2.22;;
11287;SDS011;5700;50.996;7.044;2022-10-22T01:30:26;5.68;;;2.55;;
11287;SDS011;5700;50.996;7.044;2022-10-22T01:33:28;8.05;;;2.13;;
11287;SDS011;5700;50.996;7.044;2022-10-22T01:36:31;7.82;;;2.40;;
11287;SDS011;5700;50.996;7.044;2022-10-22T01:39:33;4.45;;;1.63;;
11287;SDS011;5700;50.996;7.044;2022-10-22T01:42:35;3.03;;;2.08;;
11287;SDS011;5700;50.996;7.044;2022-10-22T01:45:38;2.90;;;1.75;;
11287;SDS011;5700;50.996;7.044;2022-10-22T01:48:44;3.42;;;1.95;;
11287;SDS011;5700;50.996;7.044;2022-10-22T01:51:55;7.38;;;1.92;;
11287;SDS011;5700;50.996;7.044;2022-10-22T01:55:02;3.28;;;1.90;;
11287;SDS011;5700;50.996;7.044;2022-10-22T01:58:10;8.93;;;2.53;;
11287;SDS011;5700;50.996;7.044;2022-10-22T02:01:22;4.80;;;2.22;;
11287;SDS011;5700;50.996;7.044;2022-10-22T02:04:27;5.13;;;1.70;;
11287;SDS011;5700;50.996;7.044;2022-10-22T02:07:31;3.38;;;1.73;;
11287;SDS011;5700;50.996;7.044;2022-10-22T02:10:35;5.22;;;2.10;;
11287;SDS011;5700;50.996;7.044;2022-10-22T02:13:39;5.95;;;2.08;;
11287;SDS011;5700;50.996;7.044;2022-10-22T02:16:44;5.75;;;2.00;;
11287;SDS011;5700;50.996;7.044;2022-10-22T02:19:49;4.20;;;2.38;;
11287;SDS011;5700;50.996;7.044;2022-10-22T02:22:53;5.35;;;2.53;;
11287;SDS011;5700;50.996;7.044;2022-10-22T02:25:58;6.38;;;2.33;;
11287;SDS011;5700;50.996;7.044;2022-10-22T02:29:02;6.15;;;2.20;;
11287;SDS011;5700;50.996;7.044;2022-10-22T02:32:09;3.88;;;2.28;;
11287;SDS011;5700;50.996;7.044;2022-10-22T02:35:14;4.43;;;2.17;;
11287;SDS011;5700;50.996;7.044;2022-10-22T02:38:18;10.82;;;2.60;;
11287;SDS011;5700;50.996;7.044;2022-10-22T02:41:20;4.82;;;2.50;;
11287;SDS011;5700;50.996;7.044;2022-10-22T02:44:23;6.60;;;3.10;;
11287;SDS011;5700;50.996;7.044;2022-10-22T02:47:26;7.13;;;2.38;;
11287;SDS011;5700;50.996;7.044;2022-10-22T02:50:27;5.50;;;2.20;;
11287;SDS011;5700;50.996;7.044;2022-10-22T02:53:28;4.43;;;2.22;;
11287;SDS011;5700;50.996;7.044;2022-10-22T02:56:30;6.28;;;2.42;;
11287;SDS011;5700;50.996;7.044;2022-10-22T02:59:31;5.22;;;2.20;;
11287;SDS011;5700;50.996;7.044;2022-10-22T03:02:34;3.97;;;2.10;;
11287;SDS011;5700;50.996;7.044;2022-10-22T03:05:35;5.45;;;2.20;;
11287;SDS011;5700;50.996;7.044;2022-10-22T03:08:37;6.32;;;2.30;;
11287;SDS011;5700;50.996;7.044;2022-10-22T03:11:38;11.68;;;1.90;;
11287;SDS011;5700;50.996;7.044;2022-10-22T03:14:39;5.55;;;2.47;;
11287;SDS011;5700;50.996;7.044;2022-10-22T03:17:42;8.13;;;2.15;;
11287;SDS011;5700;50.996;7.044;2022-10-22T03:20:43;4.68;;;2.20;;
11287;SDS011;5700;50.996;7.044;2022-10-22T03:23:45;8.30;;;2.35;;
11287;SDS011;5700;50.996;7.044;2022-10-22T03:26:48;3.78;;;2.17;;
11287;SDS011;5700;50.996;7.044;2022-10-22T03:29:50;4.53;;;1.90;;
11287;SDS011;5700;50.996;7.044;2022-10-22T03:32:53;4.50;;;2.03;;
11287;SDS011;5700;50.996;7.044;2022-10-22T03:35:55;5.15;;;1.98;;
11287;SDS011;5700;50.996;7.044;2022-10-22T03:38:57;4.70;;;2.55;;
11287;SDS011;5700;50.996;7.044;2022-10-22T03:41:59;12.13;;;2.75;;
11287;SDS011;5700;50.996;7.044;2022-10-22T03:45:01;8.40;;;2.45;;
11287;SDS011;5700;50.996;7.044;2022-10-22T03:48:03;4.93;;;2.35;;
11287;SDS011;5700;50.996;7.044;2022-10-22T03:51:05;8.68;;;3.00;;
11287;SDS011;5700;50.996;7.044;2022-10-22T03:54:07;9.27;;;2.92;;
11287;SDS011;5700;50.996;7.044;2022-10-22T03:57:08;7.30;;;3.38;;
11287;SDS011;5700;50.996;7.044;2022-10-22T04:00:10;4.43;;;2.70;;
11287;SDS011;5700;50.996;7.044;2022-10-22T04:03:13;5.75;;;2.65;;
11287;SDS011;5700;50.996;7.044;2022-10-22T04:06:14;7.35;;;2.83;;
11287;SDS011;5700;50.996;7.044;2022-10-22T04:09:16;10.00;;;2.22;;
11287;SDS011;5700;50.996;7.044;2022-10-22T04:12:17;5.30;;;2.65;;
11287;SDS011;5700;50.996;7.044;2022-10-22T04:15:19;6.40;;;2.35;;
11287;SDS011;5700;50.996;7.044;2022-10-22T04:18:21;7.25;;;2.45;;
11287;SDS011;5700;50.996;7.044;2022-10-22T04:21:23;5.30;;;2.55;;
11287;SDS011;5700;50.996;7.044;2022-10-22T04:24:25;4.93;;;2.42;;
11287;SDS011;5700;50.996;7.044;2022-10-22T04:27:28;5.25;;;2.17;;
11287;SDS011;5700;50.996;7.044;2022-10-22T04:30:30;5.28;;;2.90;;
11287;SDS011;5700;50.996;7.044;2022-10-22T04:33:33;4.50;;;2.58;;
11287;SDS011;5700;50.996;7.044;2022-10-22T04:36:34;5.97;;;3.17;;
11287;SDS011;5700;50.996;7.044;2022-10-22T04:39:35;5.63;;;2.60;;
11287;SDS011;5700;50.996;7.044;2022-10-22T04:42:37;5.80;;;3.03;;
11287;SDS011;5700;50.996;7.044;2022-10-22T04:45:38;6.78;;;3.17;;
11287;SDS011;5700;50.996;7.044;2022-10-22T04:48:41;4.82;;;2.63;;
11287;SDS011;5700;50.996;7.044;2022-10-22T04:51:44;4.68;;;2.78;;
11287;SDS011;5700;50.996;7.044;2022-10-22T04:54:45;4.18;;;2.42;;
11287;SDS011;5700;50.996;7.044;2022-10-22T04:57:46;4.05;;;2.30;;
11287;SDS011;5700;50.996;7.044;2022-10-22T05:00:48;3.63;;;2.45;;
11287;SDS011;5700;50.996;7.044;2022-10-22T05:03:52;6.00;;;2.50;;
11287;SDS011;5700;50.996;7.044;2022-10-22T05:06:54;5.20;;;3.05;;
11287;SDS011;5700;50.996;7.044;2022-10-22T05:09:56;4.50;;;2.30;;
11287;SDS011;5700;50.996;7.044;2022-10-22T05:12:57;10.77;;;2.50;;
11287;SDS011;5700;50.996;7.044;2022-10-22T05:15:59;13.88;;;2.92;;
11287;SDS011;5700;50.996;7.044;2022-10-22T05:19:03;4.90;;;2.20;;
11287;SDS011;5700;50.996;7.044;2022-10-22T05:22:04;3.80;;;2.35;;
11287;SDS011;5700;50.996;7.044;2022-10-22T05:25:06;4.38;;;2.13;;
11287;SDS011;5700;50.996;7.044;2022-10-22T05:28:08;7.60;;;2.40;;
11287;SDS011;5700;50.996;7.044;2022-10-22T05:31:10;6.63;;;2.22;;
11287;SDS011;5700;50.996;7.044;2022-10-22T05:34:14;6.45;;;2.15;;
11287;SDS011;5700;50.996;7.044;2022-10-22T05:37:15;3.90;;;2.03;;
11287;SDS011;5700;50.996;7.044;2022-10-22T05:40:17;5.20;;;2.55;;
11287;SDS011;5700;50.996;7.044;2022-10-22T05:43:18;5.18;;;2.63;;
11287;SDS011;5700;50.996;7.044;2022-10-22T05:46:20;5.80;;;2.30;;
11287;SDS011;5700;50.996;7.044;2022-10-22T05:49:24;9.90;;;2.65;;
11287;SDS011;5700;50.996;7.044;2022-10-22T05:52:25;4.88;;;2.10;;
11287;SDS011;5700;50.996;7.044;2022-10-22T05:55:27;5.28;;;2.17;;
11287;SDS011;5700;50.996;7.044;2022-10-22T05:58:28;2.83;;;1.85;;
11287;SDS011;5700;50.996;7.044;2022-10-22T06:01:31;5.03;;;2.47;;
11287;SDS011;5700;50.996;7.044;2022-10-22T06:04:35;4.90;;;2.75;;
11287;SDS011;5700;50.996;7.044;2022-10-22T06:07:36;4.38;;;2.10;;
11287;SDS011;5700;50.996;7.044;2022-10-22T06:10:38;7.32;;;2.45;;
11287;SDS011;5700;50.996;7.044;2022-10-22T06:13:41;6.00;;;2.97;;
11287;SDS011;5700;50.996;7.044;2022-10-22T06:16:43;10.90;;;4.18;;
11287;SDS011;5700;50.996;7.044;2022-10-22T06:19:45;9.60;;;4.25;;
11287;SDS011;5700;50.996;7.044;2022-10-22T06:22:47;7.65;;;2.92;;
11287;SDS011;5700;50.996;7.044;2022-10-22T06:25:54;7.38;;;3.67;;
11287;SDS011;5700;50.996;7.044;2022-10-22T06:28:56;11.40;;;4.00;;
11287;SDS011;5700;50.996;7.044;2022-10-22T06:31:58;7.97;;;4.47;;
11287;SDS011;5700;50.996;7.044;2022-10-22T06:35:00;7.50;;;4.20;;
11287;SDS011;5700;50.996;7.044;2022-10-22T06:38:02;9.60;;;4.32;;
11287;SDS011;5700;50.996;7.044;2022-10-22T06:41:03;7.55;;;3.92;;
11287;SDS011;5700;50.996;7.044;2022-10-22T06:44:06;8.77;;;4.28;;
11287;SDS011;5700;50.996;7.044;2022-10-22T06:47:07;10.18;;;4.57;;
11287;SDS011;5700;50.996;7.044;2022-10-22T06:50:10;6.13;;;3.38;;
11287;SDS011;5700;50.996;7.044;2022-10-22T06:53:11;9.85;;;4.57;;
11287;SDS011;5700;50.996;7.044;2022-10-22T06:56:13;7.97;;;3.97;;
11287;SDS011;5700;50.996;7.044;2022-10-22T06:59:16;6.78;;;4.03;;
11287;SDS011;5700;50.996;7.044;2022-10-22T07:02:17;7.00;;;3.65;;
11287;SDS011;5700;50.996;7.044;2022-10-22T07:05:20;10.18;;;4.40;;
11287;SDS011;5700;50.996;7.044;2022-10-22T07:08:21;10.35;;;3.67;;
11287;SDS011;5700;50.996;7.044;2022-10-22T07:11:24;7.88;;;4.30;;
11287;SDS011;5700;50.996;7.044;2022-10-22T07:14:26;8.38;;;4.13;;
11287;SDS011;5700;50.996;7.044;2022-10-22T07:17:27;14.57;;;4.13;;
11287;SDS011;5700;50.996;7.044;2022-10-22T07:20:30;7.40;;;3.80;;
11287;SDS011;5700;50.996;7.044;2022-10-22T07:23:31;7.53;;;4.13;;
11287;SDS011;5700;50.996;7.044;2022-10-22T07:26:33;8.52;;;4.35;;
11287;SDS011;5700;50.996;7.044;2022-10-22T07:29:35;8.88;;;4.60;;
11287;SDS011;5700;50.996;7.044;2022-10-22T07:32:37;9.63;;;5.50;;
11287;SDS011;5700;50.996;7.044;2022-10-22T07:35:40;10.82;;;5.28;;
11287;SDS011;5700;50.996;7.044;2022-10-22T07:38:41;9.30;;;4.60;;
11287;SDS011;5700;50.996;7.044;2022-10-22T07:41:43;10.68;;;5.05;;
11287;SDS011;5700;50.996;7.044;2022-10-22T07:44:45;11.07;;;4.47;;
11287;SDS011;5700;50.996;7.044;2022-10-22T07:47:46;8.57;;;4.70;;
11287;SDS011;5700;50.996;7.044;2022-10-22T07:50:49;13.40;;;5.53;;
11287;SDS011;5700;50.996;7.044;2022-10-22T07:53:51;10.30;;;5.22;;
11287;SDS011;5700;50.996;7.044;2022-10-22T07:56:52;12.13;;;5.15;;
11287;SDS011;5700;50.996;7.044;2022-10-22T07:59:53;13.55;;;4.78;;
11287;SDS011;5700;50.996;7.044;2022-10-22T08:02:57;12.93;;;4.82;;
11287;SDS011;5700;50.996;7.044;2022-10-22T08:05:59;11.55;;;4.15;;
11287;SDS011;5700;50.996;7.044;2022-10-22T08:09:01;9.63;;;4.82;;
11287;SDS011;5700;50.996;7.044;2022-10-22T08:12:03;15.20;;;4.90;;
11287;SDS011;5700;50.996;7.044;2022-10-22T08:15:05;8.65;;;4.30;;
11287;SDS011;5700;50.996;7.044;2022-10-22T08:18:07;6.32;;;3.72;;
11287;SDS011;5700;50.996;7.044;2022-10-22T08:21:10;9.23;;;3.85;;
11287;SDS011;5700;50.996;7.044;2022-10-22T08:24:11;7.22;;;3.35;;
11287;SDS011;5700;50.996;7.044;2022-10-22T08:27:13;5.03;;;3.08;;
11287;SDS011;5700;50.996;7.044;2022-10-22T08:30:15;7.15;;;2.80;;
11287;SDS011;5700;50.996;7.044;2022-10-22T08:33:16;8.25;;;2.75;;
11287;SDS011;5700;50.996;7.044;2022-10-22T08:36:19;5.65;;;2.67;;
11287;SDS011;5700;50.996;7.044;2022-10-22T08:39:21;5.03;;;2.80;;
11287;SDS011;5700;50.996;7.044;2022-10-22T08:42:30;6.13;;;2.65;;
11287;SDS011;5700;50.996;7.044;2022-10-22T08:45:39;5.10;;;2.05;;
11287;SDS011;5700;50.996;7.044;2022-10-22T08:48:46;5.32;;;2.20;;
11287;SDS011;5700;50.996;7.044;2022-10-22T08:51:51;4.55;;;2.20;;
11287;SDS011;5700;50.996;7.044;2022-10-22T08:54:53;8.98;;;2.38;;
11287;SDS011;5700;50.996;7.044;2022-10-22T08:57:58;5.82;;;1.95;;
11287;SDS011;5700;50.996;7.044;2022-10-22T09:01:02;3.35;;;1.98;;
11287;SDS011;5700;50.996;7.044;2022-10-22T09:04:07;5.20;;;2.20;;
11287;SDS011;5700;50.996;7.044;2022-10-22T09:07:13;4.88;;;2.42;;
11287;SDS011;5700;50.996;7.044;2022-10-22T09:10:15;4.15;;;1.73;;
11287;SDS011;5700;50.996;7.044;2022-10-22T09:13:18;5.28;;;2.33;;
11287;SDS011;5700;50.996;7.044;2022-10-22T09:16:21;3.97;;;2.08;;
11287;SDS011;5700;50.996;7.044;2022-10-22T09:19:28;4.90;;;2.05;;
11287;SDS011;5700;50.996;7.044;2022-10-22T09:22:36;5.75;;;2.15;;
11287;SDS011;5700;50.996;7.044;2022-10-22T09:25:40;4.97;;;1.98;;
11287;SDS011;5700;50.996;7.044;2022-10-22T09:28:42;3.95;;;1.80;;
11287;SDS011;5700;50.996;7.044;2022-10-22T09:31:43;3.42;;;1.55;;
11287;SDS011;5700;50.996;7.044;2022-10-22T09:34:45;4.25;;;1.65;;
11287;SDS011;5700;50.996;7.044;2022-10-22T09:37:49;4.72;;;1.92;;
11287;SDS011;5700;50.996;7.044;2022-10-22T09:40:53;7.38;;;2.30;;
11287;SDS011;5700;50.996;7.044;2022-10-22T09:43:56;6.70;;;1.95;;
11287;SDS011;5700;50.996;7.044;2022-10-22T09:46:58;3.13;;;1.88;;
11287;SDS011;5700;50.996;7.044;2022-10-22T09:50:03;3.35;;;1.75;;
11287;SDS011;5700;50.996;7.044;2022-10-22T09:53:12;6.30;;;1.80;;
11287;SDS011;5700;50.996;7.044;2022-10-22T09:56:16;15.52;;;1.88;;
11287;SDS011;5700;50.996;7.044;2022-10-22T09:59:25;7.95;;;2.10;;
11287;SDS011;5700;50.996;7.044;2022-10-22T10:02:31;4.47;;;1.70;;
11287;SDS011;5700;50.996;7.044;2022-10-22T10:05:33;3.67;;;1.55;;
11287;SDS011;5700;50.996;7.044;2022-10-22T10:08:37;3.35;;;1.70;;
11287;SDS011;5700;50.996;7.044;2022-10-22T10:11:40;6.97;;;1.55;;
11287;SDS011;5700;50.996;7.044;2022-10-22T10:14:45;2.80;;;1.33;;
11287;SDS011;5700;50.996;7.044;2022-10-22T10:17:53;6.55;;;1.80;;
11287;SDS011;5700;50.996;7.044;2022-10-22T10:21:03;3.05;;;1.40;;
11287;SDS011;5700;50.996;7.044;2022-10-22T10:24:13;2.70;;;1.63;;
11287;SDS011;5700;50.996;7.044;2022-10-22T10:27:19;4.07;;;1.50;;
11287;SDS011;5700;50.996;7.044;2022-10-22T10:30:24;4.10;;;1.80;;
11287;SDS011;5700;50.996;7.044;2022-10-22T10:33:28;3.40;;;1.80;;
11287;SDS011;5700;50.996;7.044;2022-10-22T10:36:37;4.22;;;1.40;;
11287;SDS011;5700;50.996;7.044;2022-10-22T10:39:44;5.35;;;1.75;;
11287;SDS011;5700;50.996;7.044;2022-10-22T10:42:56;3.35;;;1.48;;
11287;SDS011;5700;50.996;7.044;2022-10-22T10:46:01;3.83;;;1.02;;
11287;SDS011;5700;50.996;7.044;2022-10-22T10:49:08;5.65;;;1.50;;
11287;SDS011;5700;50.996;7.044;2022-10-22T10:52:12;6.03;;;1.45;;
11287;SDS011;5700;50.996;7.044;2022-10-22T10:55:20;4.38;;;1.33;;
11287;SDS011;5700;50.996;7.044;2022-10-22T10:58:29;5.20;;;1.23;;
11287;SDS011;5700;50.996;7.044;2022-10-22T11:01:36;5.43;;;1.00;;
11287;SDS011;5700;50.996;7.044;2022-10-22T11:04:48;5.63;;;1.10;;
11287;SDS011;5700;50.996;7.044;2022-10-22T11:07:58;3.38;;;0.77;;
11287;SDS011;5700;50.996;7.044;2022-10-22T11:11:04;3.95;;;0.88;;
11287;SDS011;5700;50.996;7.044;2022-10-22T11:14:09;3.25;;;1.08;;
11287;SDS011;5700;50.996;7.044;2022-10-22T11:17:12;3.38;;;0.80;;
11287;SDS011;5700;50.996;7.044;2022-10-22T11:20:15;5.10;;;1.08;;
11287;SDS011;5700;50.996;7.044;2022-10-22T11:23:21;5.43;;;0.80;;
11287;SDS011;5700;50.996;7.044;2022-10-22T11:26:28;3.60;;;0.85;;
11287;SDS011;5700;50.996;7.044;2022-10-22T11:29:35;1.63;;;0.80;;
11287;SDS011;5700;50.996;7.044;2022-10-22T11:32:38;4.15;;;0.98;;
11287;SDS011;5700;50.996;7.044;2022-10-22T11:35:42;1.40;;;0.60;;
11287;SDS011;5700;50.996;7.044;2022-10-22T11:38:45;2.20;;;0.60;;
11287;SDS011;5700;50.996;7.044;2022-10-22T11:41:48;3.22;;;0.80;;
11287;SDS011;5700;50.996;7.044;2022-10-22T11:44:57;6.65;;;0.90;;
11287;SDS011;5700;50.996;7.044;2022-10-22T11:48:05;1.33;;;0.65;;
11287;SDS011;5700;50.996;7.044;2022-10-22T11:51:27;4.95;;;0.80;;
11287;SDS011;5700;50.996;7.044;2022-10-22T11:54:31;2.60;;;0.73;;
11287;SDS011;5700;50.996;7.044;2022-10-22T11:57:43;0.82;;;0.50;;
11287;SDS011;5700;50.996;7.044;2022-10-22T12:00:45;2.05;;;0.82;;
11287;SDS011;5700;50.996;7.044;2022-10-22T12:03:48;3.78;;;1.20;;
11287;SDS011;5700;50.996;7.044;2022-10-22T12:06:52;3.42;;;0.73;;
11287;SDS011;5700;50.996;7.044;2022-10-22T12:09:56;4.78;;;0.80;;
11287;SDS011;5700;50.996;7.044;2022-10-22T12:13:00;3.92;;;0.93;;
11287;SDS011;5700;50.996;7.044;2022-10-22T12:16:03;2.65;;;0.82;;
11287;SDS011;5700;50.996;7.044;2022-10-22T12:19:06;0.80;;;0.50;;
11287;SDS011;5700;50.996;7.044;2022-10-22T12:22:14;1.33;;;0.63;;
11287;SDS011;5700;50.996;7.044;2022-10-22T12:25:18;4.22;;;0.63;;
11287;SDS011;5700;50.996;7.044;2022-10-22T12:28:23;2.03;;;0.50;;
11287;SDS011;5700;50.996;7.044;2022-10-22T12:31:25;1.65;;;0.57;;
11287;SDS011;5700;50.996;7.044;2022-10-22T12:34:26;2.75;;;0.47;;
11287;SDS011;5700;50.996;7.044;2022-10-22T12:37:28;0.63;;;0.40;;
11287;SDS011;5700;50.996;7.044;2022-10-22T12:40:30;2.28;;;0.30;;
11287;SDS011;5700;50.996;7.044;2022-10-22T12:43:35;3.50;;;0.50;;
11287;SDS011;5700;50.996;7.044;2022-10-22T12:46:39;1.92;;;0.60;;
11287;SDS011;5700;50.996;7.044;2022-10-22T12:49:41;3.25;;;0.52;;
11287;SDS011;5700;50.996;7.044;2022-10-22T12:52:46;3.22;;;0.63;;
11287;SDS011;5700;50.996;7.044;2022-10-22T12:55:48;2.20;;;0.50;;
11287;SDS011;5700;50.996;7.044;2022-10-22T12:58:54;1.25;;;0.63;;
11287;SDS011;5700;50.996;7.044;2022-10-22T13:01:57;1.10;;;0.40;;
11287;SDS011;5700;50.996;7.044;2022-10-22T13:05:05;5.20;;;0.70;;
11287;SDS011;5700;50.996;7.044;2022-10-22T13:08:16;2.35;;;0.50;;
11287;SDS011;5700;50.996;7.044;2022-10-22T13:11:18;2.03;;;0.93;;
11287;SDS011;5700;50.996;7.044;2022-10-22T13:14:26;0.82;;;0.60;;
11287;SDS011;5700;50.996;7.044;2022-10-22T13:17:37;5.10;;;0.70;;
11287;SDS011;5700;50.996;7.044;2022-10-22T13:20:48;1.17;;;0.77;;
11287;SDS011;5700;50.996;7.044;2022-10-22T13:23:51;2.85;;;0.73;;
11287;SDS011;5700;50.996;7.044;2022-10-22T13:26:54;2.63;;;0.68;;
11287;SDS011;5700;50.996;7.044;2022-10-22T13:29:58;2.22;;;0.80;;
11287;SDS011;5700;50.996;7.044;2022-10-22T13:33:18;2.25;;;0.50;;
11287;SDS011;5700;50.996;7.044;2022-10-22T13:36:22;5.90;;;0.60;;
11287;SDS011;5700;50.996;7.044;2022-10-22T13:39:24;2.30;;;0.60;;
11287;SDS011;5700;50.996;7.044;2022-10-22T13:42:25;2.35;;;0.40;;
11287;SDS011;5700;50.996;7.044;2022-10-22T13:45:28;0.95;;;0.40;;
11287;SDS011;5700;50.996;7.044;2022-10-22T13:48:29;5.90;;;0.50;;
11287;SDS011;5700;50.996;7.044;2022-10-22T13:51:32;1.63;;;0.60;;
11287;SDS011;5700;50.996;7.044;2022-10-22T13:54:34;1.75;;;0.50;;
11287;SDS011;5700;50.996;7.044;2022-10-22T13:57:36;2.50;;;0.82;;
11287;SDS011;5700;50.996;7.044;2022-10-22T14:00:40;4.40;;;0.43;;
11287;SDS011;5700;50.996;7.044;2022-10-22T14:03:42;1.35;;;0.50;;
11287;SDS011;5700;50.996;7.044;2022-10-22T14:06:44;3.72;;;0.68;;
11287;SDS011;5700;50.996;7.044;2022-10-22T14:09:45;2.63;;;0.57;;
11287;SDS011;5700;50.996;7.044;2022-10-22T14:12:47;2.22;;;0.75;;
11287;SDS011;5700;50.996;7.044;2022-10-22T14:15:50;1.00;;;0.47;;
11287;SDS011;5700;50.996;7.044;2022-10-22T14:18:52;3.08;;;0.45;;
11287;SDS011;5700;50.996;7.044;2022-10-22T14:21:54;1.88;;;0.57;;
11287;SDS011;5700;50.996;7.044;2022-10-22T14:24:55;1.55;;;0.50;;
11287;SDS011;5700;50.996;7.044;2022-10-22T14:27:56;3.45;;;0.60;;
11287;SDS011;5700;50.996;7.044;2022-10-22T14:30:59;1.45;;;0.43;;
11287;SDS011;5700;50.996;7.044;2022-10-22T14:34:00;2.22;;;0.70;;
11287;SDS011;5700;50.996;7.044;2022-10-22T14:37:02;3.85;;;0.80;;
11287;SDS011;5700;50.996;7.044;2022-10-22T14:40:04;1.35;;;0.35;;
11287;SDS011;5700;50.996;7.044;2022-10-22T14:43:06;2.00;;;0.60;;
11287;SDS011;5700;50.996;7.044;2022-10-22T14:46:11;1.33;;;0.52;;
11287;SDS011;5700;50.996;7.044;2022-10-22T14:49:14;1.67;;;0.50;;
11287;SDS011;5700;50.996;7.044;2022-10-22T14:52:15;4.00;;;0.90;;
11287;SDS011;5700;50.996;7.044;2022-10-22T14:55:17;4.95;;;0.82;;
11287;SDS011;5700;50.996;7.044;2022-10-22T14:58:19;2.90;;;0.70;;
11287;SDS011;5700;50.996;7.044;2022-10-22T15:01:21;3.42;;;1.13;;
11287;SDS011;5700;50.996;7.044;2022-10-22T15:04:23;5.05;;;1.00;;
11287;SDS011;5700;50.996;7.044;2022-10-22T15:07:26;3.30;;;1.00;;
11287;SDS011;5700;50.996;7.044;2022-10-22T15:10:27;1.73;;;0.80;;
11287;SDS011;5700;50.996;7.044;2022-10-22T15:13:29;3.33;;;0.65;;
11287;SDS011;5700;50.996;7.044;2022-10-22T15:16:32;4.20;;;0.40;;
11287;SDS011;5700;50.996;7.044;2022-10-22T15:19:33;7.40;;;0.90;;
11287;SDS011;5700;50.996;7.044;2022-10-22T15:22:35;5.75;;;0.63;;
11287;SDS011;5700;50.996;7.044;2022-10-22T15:25:36;1.98;;;0.60;;
11287;SDS011;5700;50.996;7.044;2022-10-22T15:28:38;3.10;;;0.50;;
11287;SDS011;5700;50.996;7.044;2022-10-22T15:31:42;1.58;;;0.40;;
11287;SDS011;5700;50.996;7.044;2022-10-22T15:34:45;1.23;;;0.57;;
11287;SDS011;5700;50.996;7.044;2022-10-22T15:37:49;2.95;;;0.70;;
11287;SDS011;5700;50.996;7.044;2022-10-22T15:40:58;5.90;;;1.67;;
11287;SDS011;5700;50.996;7.044;2022-10-22T15:44:00;5.18;;;0.73;;
11287;SDS011;5700;50.996;7.044;2022-10-22T15:47:03;4.80;;;0.93;;
11287;SDS011;5700;50.996;7.044;2022-10-22T15:50:05;4.20;;;0.70;;
11287;SDS011;5700;50.996;7.044;2022-10-22T15:53:07;5.57;;;0.60;;
11287;SDS011;5700;50.996;7.044;2022-10-22T15:56:09;4.80;;;2.35;;
11287;SDS011;5700;50.996;7.044;2022-10-22T15:59:12;4.53;;;1.42;;
11287;SDS011;5700;50.996;7.044;2022-10-22T16:02:16;8.57;;;1.52;;
11287;SDS011;5700;50.996;7.044;2022-10-22T16:05:18;8.10;;;1.50;;
11287;SDS011;5700;50.996;7.044;2022-10-22T16:08:19;4.70;;;1.40;;
11287;SDS011;5700;50.996;7.044;2022-10-22T16:11:21;5.38;;;2.08;;
11287;SDS011;5700;50.996;7.044;2022-10-22T16:14:22;3.90;;;1.60;;
11287;SDS011;5700;50.996;7.044;2022-10-22T16:17:25;5.40;;;0.95;;
11287;SDS011;5700;50.996;7.044;2022-10-22T16:20:26;4.13;;;1.30;;
11287;SDS011;5700;50.996;7.044;2022-10-22T16:23:28;5.50;;;1.20;;
11287;SDS011;5700;50.996;7.044;2022-10-22T16:26:29;4.30;;;1.17;;
11287;SDS011;5700;50.996;7.044;2022-10-22T16:29:30;5.80;;;1.05;;
11287;SDS011;5700;50.996;7.044;2022-10-22T16:32:33;2.88;;;0.88;;
11287;SDS011;5700;50.996;7.044;2022-10-22T16:35:38;6.55;;;1.20;;
11287;SDS011;5700;50.996;7.044;2022-10-22T16:38:41;4.28;;;0.85;;
11287;SDS011;5700;50.996;7.044;2022-10-22T16:41:42;7.72;;;1.52;;
11287;SDS011;5700;50.996;7.044;2022-10-22T16:44:44;8.40;;;1.25;;
11287;SDS011;5700;50.996;7.044;2022-10-22T16:47:46;2.65;;;1.08;;
11287;SDS011;5700;50.996;7.044;2022-10-22T16:50:48;2.50;;;1.10;;
11287;SDS011;5700;50.996;7.044;2022-10-22T16:53:50;4.05;;;0.93;;
11287;SDS011;5700;50.996;7.044;2022-10-22T16:56:51;4.38;;;0.95;;
11287;SDS011;5700;50.996;7.044;2022-10-22T16:59:53;2.63;;;1.10;;
11287;SDS011;5700;50.996;7.044;2022-10-22T17:02:56;7.60;;;1.42;;
11287;SDS011;5700;50.996;7.044;2022-10-22T17:05:57;2.53;;;1.23;;
11287;SDS011;5700;50.996;7.044;2022-10-22T17:08:59;2.95;;;1.30;;
11287;SDS011;5700;50.996;7.044;2022-10-22T17:12:00;6.38;;;1.30;;
11287;SDS011;5700;50.996;7.044;2022-10-22T17:15:02;4.30;;;1.75;;
11287;SDS011;5700;50.996;7.044;2022-10-22T17:18:05;3.80;;;1.50;;
11287;SDS011;5700;50.996;7.044;2022-10-22T17:21:08;7.63;;;1.10;;
11287;SDS011;5700;50.996;7.044;2022-10-22T17:24:10;10.18;;;1.27;;
11287;SDS011;5700;50.996;7.044;2022-10-22T17:27:12;9.43;;;1.27;;
11287;SDS011;5700;50.996;7.044;2022-10-22T17:30:14;9.30;;;1.00;;
11287;SDS011;5700;50.996;7.044;2022-10-22T17:33:18;3.40;;;1.40;;
11287;SDS011;5700;50.996;7.044;2022-10-22T17:36:20;9.48;;;1.00;;
11287;SDS011;5700;50.996;7.044;2022-10-22T17:39:23;3.50;;;1.45;;
11287;SDS011;5700;50.996;7.044;2022-10-22T17:42:24;3.67;;;1.20;;
11287;SDS011;5700;50.996;7.044;2022-10-22T17:45:26;3.25;;;1.70;;
11287;SDS011;5700;50.996;7.044;2022-10-22T17:48:28;5.75;;;1.52;;
11287;SDS011;5700;50.996;7.044;2022-10-22T17:51:30;1.13;;;0.90;;
11287;SDS011;5700;50.996;7.044;2022-10-22T17:54:32;5.35;;;1.27;;
11287;SDS011;5700;50.996;7.044;2022-10-22T17:57:33;5.65;;;1.58;;
11287;SDS011;5700;50.996;7.044;2022-10-22T18:00:35;7.85;;;1.73;;
11287;SDS011;5700;50.996;7.044;2022-10-22T18:03:38;4.95;;;1.50;;
11287;SDS011;5700;50.996;7.044;2022-10-22T18:06:39;5.93;;;1.80;;
11287;SDS011;5700;50.996;7.044;2022-10-22T18:09:41;3.00;;;1.83;;
11287;SDS011;5700;50.996;7.044;2022-10-22T18:12:42;3.40;;;1.40;;
11287;SDS011;5700;50.996;7.044;2022-10-22T18:15:44;6.38;;;1.60;;
11287;SDS011;5700;50.996;7.044;2022-10-22T18:18:47;7.05;;;1.88;;
11287;SDS011;5700;50.996;7.044;2022-10-22T18:21:49;10.27;;;2.25;;
11287;SDS011;5700;50.996;7.044;2022-10-22T18:24:50;6.72;;;1.98;;
11287;SDS011;5700;50.996;7.044;2022-10-22T18:27:52;4.82;;;2.13;;
11287;SDS011;5700;50.996;7.044;2022-10-22T18:30:53;8.77;;;2.15;;
11287;SDS011;5700;50.996;7.044;2022-10-22T18:33:56;13.20;;;2.40;;
11287;SDS011;5700;50.996;7.044;2022-10-22T18:36:57;13.15;;;2.10;;
11287;SDS011;5700;50.996;7.044;2022-10-22T18:39:58;9.93;;;2.58;;
11287;SDS011;5700;50.996;7.044;2022-10-22T18:43:00;6.85;;;2.10;;